Time;durP1;ratioP1;P1;durP2;ratioP2;P2;SDS_P1;SDS_P2;PMS_P1;PMS_P2;Temp;Humidity;BMP_temperature;BMP_pressure;BME280_temperature;BME280_humidity;BME280_pressure;Samples;Min_cycle;Max_cycle;Signal;HPM_P1;HPM_P2
2022/12/11 00:01:11;;;;;;;24.63;15.32;;;2.30;99.90;;;;;;4975245;28;20299;-90
2022/12/11 00:03:40;;;;;;;17.05;14.02;;;2.20;99.90;;;;;;4976738;28;20319;-89
2022/12/11 00:06:10;;;;;;;17.90;13.45;;;2.20;99.90;;;;;;4977525;28;20216;-89
2022/12/11 00:08:40;;;;;;;18.00;14.93;;;2.20;99.90;;;;;;4977420;28;20299;-89
2022/12/11 00:11:09;;;;;;;21.85;13.60;;;2.20;99.90;;;;;;4976991;28;20239;-88
2022/12/11 00:13:37;;;;;;;16.63;12.27;;;2.10;99.90;;;;;;4977180;28;20247;-89
2022/12/11 00:16:06;;;;;;;21.08;13.77;;;2.10;99.90;;;;;;4977477;28;20208;-89
2022/12/11 00:18:35;;;;;;;20.65;14.18;;;2.10;99.90;;;;;;4977240;28;20204;-89
2022/12/11 00:21:05;;;;;;;15.03;12.50;;;2.10;99.90;;;;;;4977451;28;20298;-89
2022/12/11 00:23:35;;;;;;;18.52;13.90;;;2.20;99.90;;;;;;4977187;28;20251;-89
2022/12/11 00:26:08;;;;;;;19.65;15.73;;;2.20;99.90;;;;;;4976929;28;20318;-90
2022/12/11 00:28:36;;;;;;;19.77;13.83;;;2.20;99.90;;;;;;4976630;28;20259;-89
2022/12/11 00:31:06;;;;;;;23.80;15.20;;;2.10;99.90;;;;;;4977145;28;20300;-90
2022/12/11 00:33:34;;;;;;;18.85;15.00;;;2.20;99.90;;;;;;4976827;28;20228;-90
2022/12/11 00:36:03;;;;;;;16.00;13.00;;;2.10;99.90;;;;;;4977108;28;20300;-89
2022/12/11 00:38:32;;;;;;;20.63;16.30;;;2.10;99.90;;;;;;4976748;28;20299;-91
2022/12/11 00:41:00;;;;;;;27.20;14.32;;;2.10;99.90;;;;;;4976695;28;20296;-90
2022/12/11 00:43:30;;;;;;;18.42;14.15;;;2.00;99.90;;;;;;4976635;28;20328;-90
2022/12/11 00:45:58;;;;;;;15.70;13.70;;;2.00;99.90;;;;;;4976615;28;20323;-91
2022/12/11 00:48:27;;;;;;;20.85;14.50;;;2.00;99.90;;;;;;4976679;28;20219;-91
2022/12/11 00:50:55;;;;;;;15.90;12.93;;;2.00;99.90;;;;;;4976742;28;20260;-90
2022/12/11 00:53:24;;;;;;;15.70;12.70;;;2.00;99.90;;;;;;4976444;28;20332;-91
2022/12/11 00:55:52;;;;;;;17.85;14.15;;;1.90;99.90;;;;;;4976534;28;20295;-90
2022/12/11 00:58:21;;;;;;;26.23;14.75;;;1.90;99.90;;;;;;4976418;28;20209;-90
2022/12/11 01:00:53;;;;;;;17.92;13.73;;;1.90;99.90;;;;;;4976788;28;20244;-90
2022/12/11 01:03:21;;;;;;;19.40;13.57;;;1.90;99.90;;;;;;4976462;28;20243;-90
2022/12/11 01:05:53;;;;;;;16.70;13.32;;;1.80;99.90;;;;;;4976517;28;20275;-90
2022/12/11 01:08:22;;;;;;;18.20;13.27;;;1.80;99.90;;;;;;4976094;28;20299;-91
2022/12/11 01:10:50;;;;;;;18.50;12.43;;;1.90;99.90;;;;;;4975800;28;20299;-90
2022/12/11 01:13:19;;;;;;;15.47;13.07;;;1.80;99.90;;;;;;4975988;28;20232;-90
2022/12/11 01:15:47;;;;;;;15.93;12.65;;;1.80;99.90;;;;;;4976299;28;20205;-90
2022/12/11 01:18:17;;;;;;;14.73;11.03;;;1.80;99.90;;;;;;4975979;28;20264;-89
2022/12/11 01:20:45;;;;;;;16.77;12.95;;;1.80;99.90;;;;;;4976368;28;20221;-89
2022/12/11 01:23:14;;;;;;;14.93;11.77;;;1.70;99.90;;;;;;4976082;28;20228;-90
2022/12/11 01:25:43;;;;;;;16.33;11.90;;;1.80;99.90;;;;;;4975693;28;20223;-91
2022/12/11 01:28:11;;;;;;;15.00;11.73;;;1.70;99.90;;;;;;4975776;28;20276;-91
2022/12/11 01:30:41;;;;;;;16.30;13.23;;;1.70;99.90;;;;;;4975749;28;20215;-91
2022/12/11 01:33:10;;;;;;;19.35;13.57;;;1.70;99.90;;;;;;4975889;28;20248;-90
2022/12/11 01:35:41;;;;;;;20.30;15.18;;;1.70;99.90;;;;;;4976047;28;20296;-91
2022/12/11 01:38:10;;;;;;;17.77;12.87;;;1.70;99.90;;;;;;4975615;28;20222;-91
2022/12/11 01:40:38;;;;;;;16.53;13.00;;;1.70;99.90;;;;;;4975763;28;20239;-91
2022/12/11 01:43:09;;;;;;;12.30;11.05;;;1.70;99.90;;;;;;4975800;28;20212;-91
2022/12/11 01:45:43;;;;;;;13.00;11.27;;;1.80;99.90;;;;;;4975844;28;20232;-91
2022/12/11 01:48:14;;;;;;;16.83;12.38;;;1.70;99.90;;;;;;4975313;28;20212;-92
2022/12/11 01:50:48;;;;;;;17.85;12.00;;;1.70;99.90;;;;;;4975590;28;20220;-91
2022/12/11 01:53:20;;;;;;;15.73;11.20;;;1.80;99.90;;;;;;4975555;28;20315;-91
2022/12/11 01:55:51;;;;;;;20.63;12.77;;;1.80;99.90;;;;;;4975666;28;20295;-91
2022/12/11 01:58:22;;;;;;;17.23;10.48;;;1.80;99.90;;;;;;4975283;28;20295;-91
2022/12/11 02:00:52;;;;;;;14.47;11.63;;;1.80;99.90;;;;;;4975310;28;20212;-91
2022/12/11 02:03:21;;;;;;;13.90;11.03;;;1.80;99.90;;;;;;4975229;28;20228;-90
2022/12/11 02:05:51;;;;;;;19.50;11.63;;;1.80;99.90;;;;;;4974910;28;20233;-91
2022/12/11 02:08:20;;;;;;;16.67;12.38;;;1.80;99.90;;;;;;4975566;28;20255;-91
2022/12/11 02:11:05;;;;;;;12.68;10.85;;;1.80;99.90;;;;;;4974841;28;20303;-91
2022/12/11 02:13:42;;;;;;;13.68;10.68;;;1.80;99.90;;;;;;4975438;28;20232;-90
2022/12/11 02:16:19;;;;;;;13.80;10.30;;;1.80;99.90;;;;;;4974910;28;20309;-90
2022/12/11 02:18:52;;;;;;;13.13;10.38;;;1.80;99.90;;;;;;4974969;28;20216;-90
2022/12/11 02:21:26;;;;;;;12.33;10.83;;;1.70;99.90;;;;;;4975202;28;20218;-90
2022/12/11 02:24:13;;;;;;;14.90;11.55;;;1.70;99.90;;;;;;4975316;28;20231;-90
2022/12/11 02:26:56;;;;;;;15.93;11.53;;;1.70;99.90;;;;;;4974860;28;20243;-90
2022/12/11 02:29:33;;;;;;;15.70;10.90;;;1.70;99.90;;;;;;4974736;28;20277;-90
2022/12/11 02:32:04;;;;;;;11.45;9.80;;;1.70;99.90;;;;;;4974707;28;20236;-90
2022/12/11 02:34:39;;;;;;;16.30;11.02;;;1.70;99.90;;;;;;4974760;28;20224;-90
2022/12/11 02:37:12;;;;;;;11.07;9.63;;;1.80;99.90;;;;;;4974506;28;20259;-90
2022/12/11 02:39:44;;;;;;;12.70;11.07;;;1.80;99.90;;;;;;4974813;28;20291;-90
2022/12/11 02:42:15;;;;;;;15.43;10.97;;;1.70;99.90;;;;;;4974701;28;20204;-89
2022/12/11 02:44:46;;;;;;;13.60;11.15;;;1.80;99.90;;;;;;4974643;28;20312;-90
2022/12/11 02:47:18;;;;;;;15.52;10.73;;;1.80;99.90;;;;;;4974083;28;20238;-90
2022/12/11 02:49:49;;;;;;;12.80;10.43;;;1.80;99.90;;;;;;4974820;28;20218;-90
2022/12/11 02:52:22;;;;;;;10.83;9.30;;;1.80;99.90;;;;;;4974283;28;20307;-90
2022/12/11 02:54:52;;;;;;;14.02;10.85;;;1.80;99.90;;;;;;4974639;28;20270;-90
2022/12/11 02:57:27;;;;;;;19.35;11.25;;;1.70;99.90;;;;;;4974088;28;20260;-90
2022/12/11 02:59:57;;;;;;;11.37;8.93;;;1.80;99.90;;;;;;4974494;28;20208;-89
2022/12/11 03:02:26;;;;;;;10.60;8.67;;;1.80;99.90;;;;;;4974857;28;20193;-90
2022/12/11 03:04:56;;;;;;;14.40;10.30;;;1.70;99.90;;;;;;4974349;28;20223;-89
2022/12/11 03:07:27;;;;;;;10.97;8.53;;;1.70;99.90;;;;;;4973818;28;20220;-90
2022/12/11 03:09:55;;;;;;;13.17;9.03;;;1.70;99.90;;;;;;4973927;28;20208;-89
2022/12/11 03:12:30;;;;;;;18.00;9.13;;;1.80;99.90;;;;;;4974178;28;20304;-89
2022/12/11 03:15:03;;;;;;;10.27;8.48;;;1.70;99.90;;;;;;4974412;28;20227;-90
2022/12/11 03:17:35;;;;;;;13.20;9.00;;;1.70;99.90;;;;;;4973834;28;20214;-89
2022/12/11 03:20:10;;;;;;;14.27;8.07;;;1.70;99.90;;;;;;4973832;28;20243;-89
2022/12/11 03:22:43;;;;;;;11.00;7.97;;;1.70;99.90;;;;;;4974508;28;20207;-90
2022/12/11 03:25:17;;;;;;;8.80;7.90;;;1.70;99.90;;;;;;4974066;28;20306;-90
2022/12/11 03:27:50;;;;;;;11.57;8.10;;;1.70;99.90;;;;;;4973460;28;20311;-90
2022/12/11 03:30:23;;;;;;;18.88;9.55;;;1.70;99.90;;;;;;4973177;28;20212;-90
2022/12/11 03:32:55;;;;;;;10.23;8.73;;;1.70;99.90;;;;;;4973799;28;20236;-90
2022/12/11 03:35:26;;;;;;;11.87;8.40;;;1.60;99.90;;;;;;4974043;28;20208;-90
2022/12/11 03:37:57;;;;;;;10.93;8.40;;;1.70;99.90;;;;;;4973912;28;20215;-90
2022/12/11 03:40:27;;;;;;;10.43;8.87;;;1.70;99.90;;;;;;4974286;28;20295;-91
2022/12/11 03:42:57;;;;;;;11.93;8.90;;;1.70;99.90;;;;;;4974485;28;20264;-91
2022/12/11 03:45:29;;;;;;;9.38;7.57;;;1.70;99.90;;;;;;4974140;28;20291;-91
2022/12/11 03:47:59;;;;;;;11.13;9.10;;;1.70;99.90;;;;;;4973481;28;20315;-91
2022/12/11 03:50:31;;;;;;;10.93;8.67;;;1.70;99.90;;;;;;4973808;28;20322;-90
2022/12/11 03:53:02;;;;;;;10.37;9.03;;;1.70;99.90;;;;;;4973984;28;20291;-90
2022/12/11 03:55:32;;;;;;;12.13;8.38;;;1.70;99.90;;;;;;4973836;28;20304;-91
2022/12/11 03:58:00;;;;;;;10.30;8.38;;;1.70;99.90;;;;;;4973844;28;20201;-91
2022/12/11 04:00:30;;;;;;;12.63;8.13;;;1.70;99.90;;;;;;4973834;28;20236;-91
2022/12/11 04:03:16;;;;;;;13.13;8.60;;;1.70;99.90;;;;;;4973687;28;20236;-89
2022/12/11 04:05:47;;;;;;;8.90;7.80;;;1.60;99.90;;;;;;4973861;28;20204;-90
2022/12/11 04:08:16;;;;;;;9.00;8.07;;;1.60;99.90;;;;;;4973087;28;20263;-89
2022/12/11 04:10:44;;;;;;;11.60;8.90;;;1.50;99.90;;;;;;4973551;28;20215;-89
2022/12/11 04:13:13;;;;;;;10.80;8.37;;;1.60;99.90;;;;;;4973271;28;20228;-88
2022/12/11 04:15:42;;;;;;;18.23;9.10;;;1.50;99.90;;;;;;4973666;28;20287;-89
2022/12/11 04:26:27;;;;;;;10.30;8.13;;;1.30;99.90;;;;;;4973735;28;20235;-89
2022/12/11 04:28:55;;;;;;;11.43;8.63;;;1.20;99.90;;;;;;4973400;28;20212;-89
2022/12/11 04:31:25;;;;;;;12.23;8.50;;;1.20;99.90;;;;;;4973555;28;20301;-89
2022/12/11 04:33:53;;;;;;;12.97;8.80;;;1.10;99.90;;;;;;4973430;28;20240;-89
2022/12/11 04:36:22;;;;;;;13.20;9.57;;;1.10;99.90;;;;;;4973387;28;20209;-89
2022/12/11 04:38:51;;;;;;;14.97;10.37;;;1.10;99.90;;;;;;4972889;28;20217;-89
2022/12/11 04:41:19;;;;;;;11.33;8.57;;;1.00;99.90;;;;;;4973572;28;20204;-89
2022/12/11 04:43:50;;;;;;;8.60;7.70;;;0.90;99.90;;;;;;4977242;28;20236;-89
2022/12/11 04:46:20;;;;;;;12.37;8.57;;;0.90;99.90;;;;;;4977012;28;20223;-89
2022/12/11 04:48:51;;;;;;;14.83;9.23;;;1.00;99.90;;;;;;4976463;28;20212;-88
2022/12/11 04:51:25;;;;;;;10.27;9.17;;;0.90;99.90;;;;;;4976944;28;20327;-88
2022/12/11 04:53:53;;;;;;;12.60;9.23;;;0.90;99.90;;;;;;4976607;28;20229;-89
2022/12/11 04:56:21;;;;;;;13.43;9.20;;;0.80;99.90;;;;;;4976730;28;20222;-89
2022/12/11 04:58:50;;;;;;;13.37;9.50;;;0.90;99.90;;;;;;4976567;28;20273;-88
2022/12/11 05:01:20;;;;;;;11.20;9.53;;;0.90;99.90;;;;;;4976571;28;20217;-88
2022/12/11 05:03:50;;;;;;;8.87;7.80;;;0.80;99.90;;;;;;4976610;28;20322;-88
2022/12/11 05:06:19;;;;;;;11.97;9.00;;;0.80;99.90;;;;;;4976537;28;20385;-89
2022/12/11 05:08:49;;;;;;;11.40;9.27;;;0.70;99.90;;;;;;4975906;28;20220;-88
2022/12/11 05:11:18;;;;;;;10.40;9.27;;;0.60;99.90;;;;;;4976655;28;20287;-88
2022/12/11 05:13:46;;;;;;;10.30;8.77;;;0.60;99.90;;;;;;4976224;28;20309;-88
2022/12/11 05:16:16;;;;;;;12.00;8.90;;;0.50;99.90;;;;;;4976251;28;20212;-87
2022/12/11 05:18:46;;;;;;;8.60;7.67;;;0.50;99.90;;;;;;4976603;28;20252;-88
2022/12/11 05:21:16;;;;;;;10.33;9.07;;;0.50;99.90;;;;;;4976037;28;20240;-88
2022/12/11 05:23:44;;;;;;;9.97;8.67;;;0.40;99.90;;;;;;4976177;28;20319;-88
2022/12/11 05:26:15;;;;;;;9.67;7.87;;;0.40;99.90;;;;;;4976252;28;20212;-87
2022/12/11 05:28:45;;;;;;;10.83;9.10;;;0.50;99.90;;;;;;4975434;28;20376;-87
2022/12/11 05:31:16;;;;;;;11.63;9.07;;;0.40;99.90;;;;;;4975835;28;20215;-87
2022/12/11 05:33:45;;;;;;;10.90;8.77;;;0.40;99.90;;;;;;4975865;28;20294;-87
2022/12/11 05:36:19;;;;;;;13.57;9.63;;;0.40;99.90;;;;;;4975840;28;20245;-88
2022/12/11 05:38:48;;;;;;;8.70;7.73;;;0.50;99.90;;;;;;4975636;28;20296;-88
2022/12/11 05:41:19;;;;;;;12.53;9.03;;;0.40;99.90;;;;;;4976131;28;20219;-88
2022/12/11 05:43:50;;;;;;;12.70;9.63;;;0.40;99.90;;;;;;4975754;28;20237;-88
2022/12/11 05:46:21;;;;;;;9.80;8.30;;;0.50;99.90;;;;;;4975897;28;20217;-88
2022/12/11 05:48:52;;;;;;;18.63;9.30;;;0.40;99.90;;;;;;4975042;28;20236;-88
2022/12/11 05:51:22;;;;;;;10.03;7.93;;;0.40;99.90;;;;;;4975466;28;20224;-88
2022/12/11 05:53:51;;;;;;;11.27;9.27;;;0.40;99.90;;;;;;4975460;28;20240;-87
2022/12/11 05:56:22;;;;;;;13.50;8.77;;;0.40;99.90;;;;;;4975467;28;20223;-88
2022/12/11 05:58:51;;;;;;;9.80;8.77;;;0.40;99.90;;;;;;4975384;28;20216;-88
2022/12/11 06:01:21;;;;;;;9.83;8.77;;;0.50;99.90;;;;;;4975644;28;20232;-88
2022/12/11 06:03:50;;;;;;;10.97;8.43;;;0.40;99.90;;;;;;4975002;28;20232;-87
2022/12/11 06:06:18;;;;;;;10.50;9.37;;;0.50;99.90;;;;;;4975589;28;20300;-87
2022/12/11 06:08:49;;;;;;;11.33;8.87;;;0.50;99.90;;;;;;4974912;28;20232;-89
2022/12/11 06:11:18;;;;;;;9.80;8.00;;;0.50;99.90;;;;;;4975291;28;20212;-89
2022/12/11 06:13:51;;;;;;;9.97;8.97;;;0.50;99.90;;;;;;4975049;28;20232;-87
2022/12/11 06:16:20;;;;;;;8.70;7.90;;;0.50;99.90;;;;;;4975182;28;20219;-89
2022/12/11 06:18:48;;;;;;;13.53;8.77;;;0.40;99.90;;;;;;4975363;28;20212;-88
2022/12/11 06:21:21;;;;;;;11.03;9.93;;;0.40;99.90;;;;;;4975220;28;20208;-87
2022/12/11 06:23:53;;;;;;;10.70;8.80;;;0.40;99.90;;;;;;4974834;28;20246;-87
2022/12/11 06:26:22;;;;;;;13.10;8.17;;;0.50;99.90;;;;;;4974996;28;20219;-87
2022/12/11 06:28:51;;;;;;;11.67;8.20;;;0.50;99.90;;;;;;4974382;28;20224;-88
2022/12/11 06:31:20;;;;;;;8.80;7.37;;;0.50;99.90;;;;;;4974614;28;20208;-88
2022/12/11 06:33:48;;;;;;;8.57;7.60;;;0.60;99.90;;;;;;4975010;28;20229;-87
2022/12/11 06:36:18;;;;;;;8.73;7.43;;;0.50;99.90;;;;;;4974722;28;20223;-87
2022/12/11 06:38:47;;;;;;;8.57;7.73;;;0.60;99.90;;;;;;4974557;28;20206;-88
2022/12/11 06:41:17;;;;;;;7.77;6.90;;;0.70;99.90;;;;;;4974732;28;20295;-87
2022/12/11 06:43:45;;;;;;;9.97;8.10;;;0.60;99.90;;;;;;4974669;28;20258;-87
2022/12/11 06:46:17;;;;;;;11.47;7.27;;;0.60;99.90;;;;;;4974907;28;20239;-87
2022/12/11 06:48:46;;;;;;;11.03;5.97;;;0.70;99.90;;;;;;4974175;28;20267;-89
2022/12/11 06:51:17;;;;;;;8.97;5.73;;;0.70;99.90;;;;;;4974595;28;20216;-89
2022/12/11 06:53:45;;;;;;;8.00;6.17;;;0.70;99.90;;;;;;4974580;28;20271;-88
2022/12/11 06:56:15;;;;;;;8.17;7.30;;;0.70;99.90;;;;;;4974577;28;20272;-88
2022/12/11 06:58:45;;;;;;;8.67;6.50;;;0.60;99.90;;;;;;4974440;28;20204;-88
2022/12/11 07:01:17;;;;;;;7.67;6.00;;;0.60;99.90;;;;;;4974438;28;20294;-88
2022/12/11 07:03:45;;;;;;;7.33;6.57;;;0.60;99.90;;;;;;4974393;28;20252;-88
2022/12/11 07:06:15;;;;;;;7.07;5.73;;;0.60;99.90;;;;;;4973914;28;20234;-88
2022/12/11 07:08:43;;;;;;;9.90;6.70;;;0.70;99.90;;;;;;4974004;28;20229;-87
2022/12/11 07:11:14;;;;;;;8.07;6.37;;;0.70;99.90;;;;;;4974019;28;20215;-88
2022/12/11 07:13:44;;;;;;;9.17;7.27;;;0.70;99.90;;;;;;4974662;28;20238;-88
2022/12/11 07:16:15;;;;;;;10.33;6.70;;;0.70;99.90;;;;;;4974230;28;20291;-88
2022/12/11 07:18:47;;;;;;;7.60;6.63;;;0.70;99.90;;;;;;4973850;28;20205;-88
2022/12/11 07:21:17;;;;;;;6.80;5.90;;;0.70;99.90;;;;;;4974242;28;20264;-88
2022/12/11 07:23:45;;;;;;;7.43;6.33;;;0.70;99.90;;;;;;4974539;28;20315;-88
2022/12/11 07:26:17;;;;;;;8.60;7.70;;;0.70;99.90;;;;;;4974014;28;20219;-88
2022/12/11 07:28:47;;;;;;;8.50;7.57;;;0.60;99.90;;;;;;4973921;28;20227;-88
2022/12/11 07:31:19;;;;;;;11.77;6.60;;;0.70;99.90;;;;;;4973487;28;20268;-88
2022/12/11 07:33:52;;;;;;;7.30;6.23;;;0.60;99.90;;;;;;4973851;28;20240;-88
2022/12/11 07:36:20;;;;;;;9.13;7.20;;;0.70;99.90;;;;;;4974067;28;20204;-88
2022/12/11 07:38:49;;;;;;;11.80;6.77;;;0.70;99.90;;;;;;4973816;28;20210;-88
2022/12/11 07:41:17;;;;;;;8.77;7.80;;;0.70;99.90;;;;;;4974027;28;20212;-88
2022/12/11 07:43:47;;;;;;;7.17;5.80;;;0.70;99.90;;;;;;4973641;28;20236;-88
2022/12/11 07:46:17;;;;;;;6.70;5.90;;;0.80;99.90;;;;;;4973928;28;20218;-88
2022/12/11 07:48:47;;;;;;;6.80;6.10;;;0.70;99.90;;;;;;4973515;28;20234;-88
2022/12/11 07:51:16;;;;;;;6.77;6.00;;;0.70;99.90;;;;;;4973758;28;20236;-88
2022/12/11 07:53:46;;;;;;;6.97;6.27;;;0.70;99.90;;;;;;4973417;28;20232;-87
2022/12/11 07:56:15;;;;;;;8.40;7.00;;;0.80;99.90;;;;;;4973779;28;20244;-88
2022/12/11 07:58:44;;;;;;;7.80;6.53;;;0.80;99.90;;;;;;4973731;28;20268;-88
2022/12/11 08:01:16;;;;;;;9.03;7.07;;;0.80;99.90;;;;;;4973332;28;20225;-88
2022/12/11 08:03:44;;;;;;;10.90;6.93;;;0.90;99.90;;;;;;4973424;28;20228;-87
2022/12/11 08:06:13;;;;;;;6.00;5.40;;;1.00;99.90;;;;;;4973793;28;20299;-88
2022/12/11 08:08:42;;;;;;;8.17;6.80;;;0.90;99.90;;;;;;4973324;28;20224;-88
2022/12/11 08:11:12;;;;;;;8.00;6.93;;;0.90;99.90;;;;;;4973530;28;20296;-88
2022/12/11 08:13:42;;;;;;;6.80;5.87;;;0.90;99.90;;;;;;4973456;28;20231;-88
2022/12/11 08:16:13;;;;;;;7.67;6.80;;;0.90;99.90;;;;;;4974633;28;20212;-88
2022/12/11 08:18:45;;;;;;;6.80;6.20;;;0.90;99.90;;;;;;4977476;28;20208;-88
2022/12/11 08:21:16;;;;;;;9.30;6.50;;;0.90;99.90;;;;;;4977523;28;20296;-88
2022/12/11 08:23:45;;;;;;;11.43;6.27;;;0.80;99.90;;;;;;4977303;28;20258;-88
2022/12/11 08:26:15;;;;;;;5.63;5.13;;;0.90;99.90;;;;;;4977204;28;20244;-82
2022/12/11 08:28:44;;;;;;;6.10;5.50;;;0.90;99.90;;;;;;4976740;28;20248;-82
2022/12/11 08:31:17;;;;;;;6.67;5.97;;;0.90;99.90;;;;;;4976945;28;20216;-82
2022/12/11 08:33:48;;;;;;;11.93;6.40;;;1.00;99.90;;;;;;4977035;28;20234;-88
2022/12/11 08:36:18;;;;;;;6.73;5.63;;;1.00;99.90;;;;;;4976947;28;20232;-88
2022/12/11 08:38:46;;;;;;;7.87;6.20;;;1.00;99.90;;;;;;4976716;28;20228;-88
2022/12/11 08:41:16;;;;;;;5.93;5.33;;;1.00;99.90;;;;;;4977383;28;20303;-88
2022/12/11 08:43:45;;;;;;;6.07;4.97;;;1.00;99.90;;;;;;4976940;28;20320;-88
2022/12/11 08:46:14;;;;;;;6.77;6.07;;;1.00;99.90;;;;;;4977013;28;20214;-89
2022/12/11 08:48:43;;;;;;;8.97;5.90;;;1.10;99.90;;;;;;4976905;28;20228;-89
2022/12/11 08:51:14;;;;;;;5.50;5.00;;;1.10;99.90;;;;;;4976782;28;20298;-89
2022/12/11 08:53:44;;;;;;;5.23;4.57;;;1.20;99.90;;;;;;4976999;28;20234;-89
2022/12/11 08:56:14;;;;;;;6.93;5.43;;;1.10;99.90;;;;;;4976527;28;20271;-82
2022/12/11 08:58:43;;;;;;;5.35;4.53;;;1.10;99.90;;;;;;4976526;28;20232;-82
2022/12/11 09:01:14;;;;;;;6.07;5.47;;;1.30;99.90;;;;;;4976230;28;20208;-83
2022/12/11 09:03:42;;;;;;;5.60;4.30;;;1.20;99.90;;;;;;4976373;28;20232;-82
2022/12/11 09:06:14;;;;;;;5.77;5.03;;;1.30;99.90;;;;;;4976596;28;20208;-90
2022/12/11 09:08:44;;;;;;;7.00;6.27;;;1.20;99.90;;;;;;4976299;28;20307;-89
2022/12/11 09:11:21;;;;;;;6.13;5.53;;;1.20;99.90;;;;;;4976230;28;20299;-89
2022/12/11 09:13:49;;;;;;;6.43;5.60;;;1.20;99.90;;;;;;4976325;28;20229;-89
2022/12/11 09:16:19;;;;;;;6.75;5.82;;;1.20;99.90;;;;;;4976554;28;20215;-89
2022/12/11 09:18:49;;;;;;;5.97;5.38;;;1.30;99.90;;;;;;4976320;28;20334;-89
2022/12/11 09:21:21;;;;;;;6.03;5.47;;;1.20;99.90;;;;;;4975992;28;20269;-89
2022/12/11 09:23:52;;;;;;;5.50;5.00;;;1.10;99.90;;;;;;4976226;28;20240;-89
2022/12/11 09:26:21;;;;;;;5.23;4.70;;;1.10;99.90;;;;;;4976350;28;20211;-89
2022/12/11 09:28:52;;;;;;;7.93;5.70;;;1.10;99.90;;;;;;4975244;28;20236;-89
2022/12/11 09:31:22;;;;;;;5.83;5.23;;;1.10;99.90;;;;;;4975993;28;20213;-90
2022/12/11 09:33:52;;;;;;;6.97;6.10;;;1.10;99.90;;;;;;4976028;28;20232;-89
2022/12/11 09:36:21;;;;;;;6.97;5.60;;;1.10;99.90;;;;;;4976048;28;20306;-89
2022/12/11 09:38:50;;;;;;;5.37;4.87;;;1.10;99.90;;;;;;4975825;28;20206;-89
2022/12/11 09:41:32;;;;;;;9.73;5.23;;;1.20;99.90;;;;;;4975680;28;20212;-89
2022/12/11 09:44:07;;;;;;;9.43;5.53;;;1.10;99.90;;;;;;4976018;28;20259;-88
2022/12/11 09:46:37;;;;;;;9.23;6.30;;;1.30;99.90;;;;;;4975763;28;20231;-88
2022/12/11 09:49:20;;;;;;;4.60;4.20;;;1.30;99.90;;;;;;4975457;28;20219;-89
2022/12/11 09:51:58;;;;;;;5.55;5.10;;;1.40;99.90;;;;;;4975582;28;20250;-89
2022/12/11 09:54:27;;;;;;;5.43;4.70;;;1.50;99.90;;;;;;4976012;28;20235;-89
2022/12/11 09:57:03;;;;;;;7.57;4.93;;;1.50;99.90;;;;;;4975387;28;20302;-89
2022/12/11 09:59:42;;;;;;;6.20;5.03;;;1.60;99.90;;;;;;4975575;28;20299;-89
2022/12/11 10:02:26;;;;;;;8.43;4.67;;;1.60;99.90;;;;;;4975403;28;20219;-89
2022/12/11 10:05:04;;;;;;;3.85;3.55;;;1.60;99.90;;;;;;4975762;28;20236;-89
2022/12/11 10:07:41;;;;;;;6.40;5.20;;;1.60;99.90;;;;;;4975346;28;20204;-89
2022/12/11 10:10:17;;;;;;;5.27;4.77;;;1.80;99.90;;;;;;4974632;28;20232;-89
2022/12/11 10:12:55;;;;;;;4.13;3.73;;;1.90;99.90;;;;;;4975240;28;20211;-89
2022/12/11 10:15:39;;;;;;;5.15;3.95;;;2.00;99.90;;;;;;4975468;28;20296;-88
2022/12/11 10:18:14;;;;;;;5.13;4.23;;;2.00;99.90;;;;;;4975312;28;20208;-89
2022/12/11 10:20:44;;;;;;;4.18;3.53;;;2.20;99.90;;;;;;4975230;28;20204;-88
2022/12/11 10:23:19;;;;;;;8.80;5.20;;;2.50;99.90;;;;;;4975051;28;20246;-88
2022/12/11 10:25:52;;;;;;;4.70;4.20;;;3.20;99.90;;;;;;4974983;28;20214;-88
2022/12/11 10:28:21;;;;;;;4.22;3.83;;;3.40;99.90;;;;;;4974933;28;20212;-89
2022/12/11 10:30:55;;;;;;;5.20;4.13;;;3.60;99.90;;;;;;4974481;28;20319;-88
2022/12/11 10:33:30;;;;;;;6.63;3.70;;;3.70;99.90;;;;;;4974588;28;20233;-88
2022/12/11 10:35:59;;;;;;;4.57;4.13;;;3.60;99.90;;;;;;4975123;28;20212;-88
2022/12/11 10:38:31;;;;;;;4.60;4.20;;;3.10;99.90;;;;;;4974589;28;20247;-89
2022/12/11 10:41:03;;;;;;;4.45;4.00;;;2.90;99.90;;;;;;4974672;28;20291;-91
2022/12/11 10:43:36;;;;;;;4.18;3.78;;;2.70;99.90;;;;;;4974814;28;20228;-90
2022/12/11 10:46:05;;;;;;;4.70;4.22;;;2.60;99.90;;;;;;4974834;28;20204;-88
2022/12/11 10:48:34;;;;;;;5.13;4.55;;;2.70;99.90;;;;;;4974350;28;20243;-89
2022/12/11 10:51:05;;;;;;;4.78;4.00;;;2.60;99.90;;;;;;4974460;28;20320;-88
2022/12/11 10:53:36;;;;;;;4.18;3.85;;;2.50;99.90;;;;;;4974591;28;20228;-88
2022/12/11 10:56:05;;;;;;;4.18;3.83;;;2.50;99.90;;;;;;4974226;28;20264;-88
2022/12/11 10:58:37;;;;;;;8.13;3.58;;;2.30;99.90;;;;;;4974516;28;20214;-88
2022/12/11 11:01:08;;;;;;;7.53;4.75;;;2.30;99.90;;;;;;4974554;28;20206;-88
2022/12/11 11:03:51;;;;;;;4.63;4.22;;;2.40;99.90;;;;;;4974917;28;20243;-88
2022/12/11 11:06:21;;;;;;;3.80;3.50;;;2.50;99.90;;;;;;4974031;28;20211;-88
2022/12/11 11:08:53;;;;;;;5.97;4.78;;;2.40;99.90;;;;;;4974467;28;20219;-88
2022/12/11 11:11:28;;;;;;;3.90;3.40;;;2.30;99.90;;;;;;4973965;28;20216;-88
2022/12/11 11:14:11;;;;;;;4.03;3.60;;;2.20;99.90;;;;;;4974339;28;20327;-83
2022/12/11 11:16:42;;;;;;;8.52;4.90;;;2.20;99.90;;;;;;4974304;28;20232;-83
2022/12/11 11:19:20;;;;;;;6.32;5.07;;;2.30;99.90;;;;;;4974220;28;20223;-89
2022/12/11 11:21:51;;;;;;;5.10;4.63;;;2.40;99.90;;;;;;4974086;28;20216;-89
2022/12/11 11:24:27;;;;;;;6.53;5.85;;;2.50;99.90;;;;;;4974098;28;20225;-89
2022/12/11 11:26:57;;;;;;;5.50;4.97;;;2.60;99.90;;;;;;4973951;28;20208;-89
2022/12/11 11:29:41;;;;;;;6.35;5.45;;;2.50;99.90;;;;;;4974234;28;20211;-89
2022/12/11 11:32:20;;;;;;;4.93;4.45;;;2.50;99.90;;;;;;4973737;28;20228;-89
2022/12/11 11:34:48;;;;;;;5.15;4.50;;;2.60;99.90;;;;;;4973884;28;20242;-89
2022/12/11 11:37:24;;;;;;;7.60;5.10;;;2.50;99.90;;;;;;4973882;28;20212;-89
2022/12/11 11:39:59;;;;;;;7.65;4.80;;;2.60;99.90;;;;;;4974467;28;20212;-90
2022/12/11 11:42:41;;;;;;;8.05;5.50;;;2.60;99.90;;;;;;4973793;28;20200;-89
2022/12/11 11:45:15;;;;;;;6.13;5.13;;;2.50;99.90;;;;;;4973698;28;20230;-89
2022/12/11 11:47:52;;;;;;;5.45;4.95;;;2.70;99.90;;;;;;4973954;28;20207;-89
2022/12/11 11:50:24;;;;;;;6.93;4.22;;;2.70;99.90;;;;;;4974048;28;20228;-89
2022/12/11 11:53:00;;;;;;;3.25;3.03;;;2.70;99.90;;;;;;4978194;28;20207;-89
2022/12/11 11:55:38;;;;;;;4.57;4.07;;;2.50;99.90;;;;;;4977705;28;20219;-89
2022/12/11 11:58:14;;;;;;;3.75;3.45;;;2.30;99.90;;;;;;4977730;28;20321;-89
2022/12/11 12:00:42;;;;;;;6.22;3.75;;;2.20;99.90;;;;;;4977526;28;20206;-89
2022/12/11 12:03:13;;;;;;;4.60;4.00;;;2.10;99.90;;;;;;4977673;28;20267;-89
2022/12/11 12:05:49;;;;;;;7.50;4.68;;;2.10;99.90;;;;;;4977473;28;20254;-89
2022/12/11 12:08:27;;;;;;;3.70;3.40;;;2.30;99.90;;;;;;4977570;28;20303;-89
2022/12/11 12:11:03;;;;;;;14.15;4.32;;;2.30;99.90;;;;;;4977044;28;20236;-89
2022/12/11 12:13:40;;;;;;;5.75;3.83;;;2.30;99.90;;;;;;4977409;28;20236;-88
2022/12/11 12:16:24;;;;;;;3.45;3.22;;;2.40;99.90;;;;;;4977971;28;20208;-89
2022/12/11 12:19:23;;;;;;;4.32;3.55;;;2.40;99.90;;;;;;4977242;28;20219;-89
2022/12/11 12:21:53;;;;;;;3.53;3.25;;;2.20;99.90;;;;;;4977346;28;20214;-89
2022/12/11 12:24:33;;;;;;;6.10;3.97;;;2.10;99.90;;;;;;4977208;28;20284;-90
2022/12/11 12:27:12;;;;;;;8.20;4.03;;;1.90;99.90;;;;;;4977148;28;20215;-89
2022/12/11 12:30:05;;;;;;;5.88;4.28;;;1.80;99.90;;;;;;4977390;28;20204;-90
2022/12/11 12:32:48;;;;;;;5.50;4.90;;;1.80;99.90;;;;;;4976587;28;20229;-89
2022/12/11 12:35:33;;;;;;;4.83;4.13;;;1.80;99.90;;;;;;4976866;28;20229;-89
2022/12/11 12:38:10;;;;;;;3.47;3.17;;;1.70;99.90;;;;;;4976906;28;20224;-89
2022/12/11 12:40:48;;;;;;;4.40;4.00;;;1.50;99.90;;;;;;4977247;28;20295;-89
2022/12/11 12:43:41;;;;;;;4.80;4.10;;;1.50;99.90;;;;;;4976873;28;20234;-90
2022/12/11 12:46:21;;;;;;;3.37;3.10;;;1.30;99.90;;;;;;4976977;28;20216;-89
2022/12/11 12:48:51;;;;;;;4.03;3.57;;;1.30;99.90;;;;;;4976701;28;20219;-89
2022/12/11 12:51:19;;;;;;;5.97;4.07;;;1.20;99.90;;;;;;4976765;28;20232;-89
2022/12/11 12:53:53;;;;;;;3.83;3.53;;;1.30;99.90;;;;;;4976716;28;20224;-89
2022/12/11 12:56:23;;;;;;;3.50;3.20;;;1.30;99.90;;;;;;4977216;28;20222;-90
2022/12/11 12:58:53;;;;;;;3.60;3.20;;;1.30;99.90;;;;;;4976693;28;20212;-89
2022/12/11 13:01:24;;;;;;;3.70;3.40;;;1.30;99.90;;;;;;4976135;28;20232;-89
2022/12/11 13:03:56;;;;;;;3.23;3.03;;;1.30;99.90;;;;;;4975478;28;20328;-89
2022/12/11 13:06:36;;;;;;;5.93;4.00;;;1.30;99.90;;;;;;4976730;28;20209;-89
2022/12/11 13:09:15;;;;;;;3.57;3.27;;;1.30;99.90;;;;;;4976539;28;20212;-90
2022/12/11 13:11:44;;;;;;;4.20;3.80;;;1.30;99.90;;;;;;4975987;28;20228;-90
2022/12/11 13:14:29;;;;;;;3.70;3.40;;;1.40;99.90;;;;;;4976578;28;20232;-89
2022/12/11 13:17:25;;;;;;;4.32;3.85;;;1.50;99.90;;;;;;4976253;28;20216;-90
2022/12/11 13:20:12;;;;;;;4.30;3.90;;;1.40;99.90;;;;;;4976176;28;20259;-90
2022/12/11 13:23:09;;;;;;;7.55;4.43;;;1.40;99.90;;;;;;4976338;28;20204;-90